Weather at Maralinga Airport

Public forecast

Using degrees Celsius for public forecast. Weather courtesy of forecast.io.

Closest aviation weather report (METAR) to Maralinga Airport

Closest report is Ceduna Airport, 159.5 nm (295.3 km) SE. Retrieved 2021/06/23 01:00 UTC (21 minutes ago):

YCDU 230100Z AUTO 33017KT //// // NCD 11/06 Q1011

Closest aviation forecast (TAF) to Maralinga Airport

Forecast is more than 12 hours old.

Closest forecast is Forrest Airport, 186.0 nm (344.5 km) WSW. Retrieved 2021/06/21 14:00 UTC (1 day ago):

TAF YFRT 211332Z 2114/2202 35014KT 9999 -SHRA BKN030 FM211900 30012KT 9999 -SHRA SCT030 BECMG 2122/2200 26015KT 9999 NSW BKN020 INTER 2114/2119 34018G30KT 4000 SHRA SCT015 BKN020